Latest Weather Observations for Eliwana Airport

IDW60801

Issued at 11:03 am WST Sunday 28 November 2021 (issued every 10 minutes, with the page automatically refreshed every 10 minutes)

About weather observations | Map of weather stations | Latest weather observations for WA | Other Formats
Station Details ID: 505063 Name: ELIWANA AIRPORT Lat: -22.43 Lon: 116.89 Height: 481.07 m
Data from the previous 72 hours. | See also: Recent months for locations in Western Australia
Date/Time
WST
Temp
°C
App
Temp
°C
Dew
Point
°C
Rel
Hum
%
Delta-T
°C
Wind Press
QNH
hPa
Press
MSL
hPa
Rain since
9am
mm
Dir  Spd
km/h
Gust
km/h
Spd
kts
Gust
kts
28/11:00am 36.2 30.2 3.4 13 17.6 ENE 24 39 13 21 1013.8 - 0.0
28/10:30am 35.2 27.7 3.7 14 16.9 E 32 41 17 22 1014.1 - 0.0
28/10:00am 34.4 27.8 4.0 15 16.3 ENE 28 37 15 20 1014.4 - 0.0
28/09:30am 33.5 27.3 4.2 16 15.7 ENE 26 35 14 19 1014.7 - 0.0
28/09:00am 32.6 26.8 4.4 17 15.1 ENE 24 33 13 18 1014.9 - 0.0
28/08:30am 31.7 26.5 5.3 19 14.2 ENE 22 33 12 18 1014.9 - 0.0
28/08:00am 30.0 26.3 7.8 25 12.4 E 17 26 9 14 1014.9 - 0.0
28/07:30am 28.8 26.0 8.5 28 11.4 ENE 13 19 7 10 1014.9 - 0.0
28/07:00am 27.0 25.1 8.9 32 10.1 NE 9 11 5 6 1014.8 - 0.0
28/06:30am 25.2 23.6 8.2 34 9.3 E 6 7 3 4 1014.4 - 0.0
28/06:00am 23.8 22.0 7.8 36 8.6 ESE 7 9 4 5 1014.1 - 0.0
28/05:30am 22.9 21.1 7.8 38 8.1 E 7 9 4 5 1013.6 - 0.0
28/05:00am 23.6 21.8 8.1 37 8.4 E 7 7 4 4 1013.5 - 0.0
28/04:30am 23.4 21.9 8.3 38 8.2 SE 6 7 3 4 1013.3 - 0.0
28/04:00am 24.0 22.8 8.0 36 8.7 ESE 4 6 2 3 1013.1 - 0.0
28/03:30am 24.4 23.1 7.5 34 9.1 SE 4 6 2 3 1012.8 - 0.0
28/03:00am 25.0 23.5 8.5 35 9.1 SW 6 7 3 4 1012.7 - 0.0
28/02:30am 24.9 23.3 8.0 34 9.2 WSW 6 6 3 3 1012.6 - 0.0
28/02:00am 25.7 24.1 8.2 33 9.6 WSW 6 7 3 4 1012.6 - 0.0
28/01:30am 26.2 24.5 8.2 32 9.9 W 7 9 4 5 1012.8 - 0.0
28/01:00am 26.7 24.8 7.7 30 10.4 W 7 11 4 6 1013.0 - 0.0
28/12:30am 27.9 25.3 7.7 28 11.1 W 11 17 6 9 1013.1 - 0.0
28/12:00am 28.6 25.4 8.3 28 11.3 W 15 22 8 12 1013.3 - 0.0
 
Date/Time
WST
Temp
°C
App
Temp
°C
Dew
Point
°C
Rel
Hum
%
Delta-T
°C
Wind Press
QNH
hPa
Press
MSL
hPa
Rain since
9am
mm
Dir  Spd
km/h
Gust
km/h
Spd
kts
Gust
kts
27/11:30pm 28.7 27.1 8.9 29 11.2 WSW 7 13 4 7 1013.7 - 0.0
27/11:00pm 29.7 26.6 8.7 27 11.9 WNW 15 22 8 12 1013.2 - 0.0
27/10:30pm 30.1 26.5 8.5 26 12.2 WNW 17 22 9 12 1013.2 - 0.0
27/10:00pm 30.8 26.6 7.3 23 13.0 WNW 19 30 10 16 1013.2 - 0.0
27/09:30pm 33.3 30.5 2.2 14 16.1 N 6 9 3 5 1012.8 - 0.0
27/09:00pm 33.5 30.0 3.3 15 15.9 N 11 17 6 9 1012.7 - 0.0
27/08:30pm 33.4 30.6 3.3 15 15.9 NNW 7 17 4 9 1012.6 - 0.0
27/08:00pm 33.5 30.3 3.3 15 15.9 NNE 9 11 5 6 1012.3 - 0.0
27/07:30pm 33.8 30.9 2.6 14 16.3 NNE 7 9 4 5 1012.0 - 0.0
27/07:00pm 34.8 30.7 2.3 13 17.0 NE 13 17 7 9 1011.6 - 0.0
27/06:30pm 35.4 30.8 1.7 12 17.5 NNE 15 24 8 13 1011.1 - 0.0
27/06:00pm 36.0 31.1 2.1 12 17.8 NNE 17 24 9 13 1010.8 - 0.0
27/05:30pm 36.2 33.4 3.4 13 17.6 WSW 7 19 4 10 1010.5 - 0.0
27/05:00pm 36.6 31.8 2.6 12 18.1 NE 17 22 9 12 1010.3 - 0.0
27/04:30pm 36.4 32.5 1.2 11 18.3 NNW 11 19 6 10 1010.1 - 0.0
27/04:00pm 36.1 32.0 2.2 12 17.9 ENE 13 24 7 13 1010.3 - 0.0
27/03:34pm 37.5 33.6 3.3 12 18.4 ENE 13 32 7 17 1010.3 - 0.0
27/03:30pm 36.2 32.7 3.4 13 17.6 ENE 11 26 6 14 1010.5 - 0.0
27/03:00pm 36.2 31.0 3.4 13 17.6 ENE 20 37 11 20 1010.8 - 0.0
27/02:30pm 36.6 31.4 3.7 13 17.8 ENE 20 33 11 18 1011.0 - 0.0
27/02:00pm 35.8 33.0 3.1 13 17.4 SE 7 15 4 8 1011.3 - 0.0
27/01:30pm 36.1 32.2 3.3 13 17.5 NNE 13 32 7 17 1011.7 - 0.0
27/01:00pm 35.0 31.9 3.5 14 16.8 ESE 9 17 5 9 1012.1 - 0.0
27/12:30pm 35.2 30.4 2.6 13 17.2 E 17 26 9 14 1012.8 - 0.0
27/12:00pm 34.6 31.8 3.2 14 16.6 SE 7 19 4 10 1013.1 - 0.0
27/11:30am 34.6 29.2 2.2 13 16.9 ESE 20 35 11 19 1013.4 - 0.0
27/11:00am 34.1 29.0 2.8 14 16.4 ENE 19 57 10 31 1013.8 - 0.0
27/10:30am 34.2 30.2 4.8 16 15.9 NE 15 26 8 14 1014.3 - 0.0
27/10:00am 33.3 29.3 5.0 17 15.3 NE 15 24 8 13 1014.5 - 0.0
27/09:30am 32.7 27.8 5.3 18 14.9 NE 20 30 11 16 1014.9 - 0.0
27/09:00am 31.6 25.9 6.6 21 13.8 ENE 26 37 14 20 1015.1 - 0.0
27/08:30am 31.0 25.3 6.8 22 13.3 ENE 26 35 14 19 1015.2 - 0.0
27/08:00am 30.0 23.9 6.6 23 12.8 ENE 28 37 15 20 1015.1 - 0.0
27/07:30am 29.1 23.7 6.5 24 12.3 ENE 24 35 13 19 1015.2 - 0.0
27/07:00am 27.4 22.9 6.2 26 11.3 ENE 19 26 10 14 1015.1 - 0.0
27/06:30am 26.7 21.9 5.6 26 11.1 ENE 20 26 11 14 1014.8 - 0.0
27/06:00am 26.2 20.9 5.2 26 11.0 ENE 22 28 12 15 1014.4 - 0.0
27/05:30am 24.1 21.2 4.5 28 10.0 E 9 17 5 9 1014.0 - 0.0
27/05:00am 22.7 19.3 4.2 30 9.3 ESE 11 15 6 8 1013.8 - 0.0
27/04:30am 22.9 20.0 4.9 31 9.2 ESE 9 11 5 6 1013.5 - 0.0
27/04:00am 22.6 19.7 6.4 35 8.5 SE 11 11 6 6 1013.4 - 0.0
27/03:30am 23.1 20.6 6.4 34 8.7 ESE 9 11 5 6 1013.1 - 0.0
27/03:00am 23.8 21.8 7.0 34 8.9 ESE 7 9 4 5 1013.0 - 0.0
27/02:30am 24.3 22.9 5.6 30 9.7 SE 2 2 1 1 1013.0 - 0.0
27/02:00am 24.5 22.7 5.3 29 9.9 ENE 4 6 2 3 1013.0 - 0.0
27/01:30am 25.1 22.8 4.8 27 10.5 ENE 6 7 3 4 1013.0 - 0.0
27/01:00am 25.8 22.0 3.7 24 11.2 SE 13 15 7 8 1012.9 - 0.0
27/12:30am 26.9 24.3 3.4 22 11.9 E 6 9 3 5 1013.1 - 0.0
27/12:00am 27.8 24.7 3.5 21 12.4 ENE 9 13 5 7 1013.2 - 0.0
 
Date/Time
WST
Temp
°C
App
Temp
°C
Dew
Point
°C
Rel
Hum
%
Delta-T
°C
Wind Press
QNH
hPa
Press
MSL
hPa
Rain since
9am
mm
Dir  Spd
km/h
Gust
km/h
Spd
kts
Gust
kts
26/11:30pm 28.6 25.3 2.7 19 13.1 E 9 11 5 6 1013.4 - 0.0
26/11:00pm 29.9 25.2 3.0 18 13.8 SE 17 22 9 12 1013.3 - 0.0
26/10:30pm 29.8 25.4 2.9 18 13.8 SE 15 19 8 10 1013.5 - 0.0
26/10:00pm 30.1 25.4 3.2 18 13.9 SSE 17 22 9 12 1013.5 - 0.0
26/09:30pm 29.8 26.2 2.9 18 13.8 SSE 11 15 6 8 1013.4 - 0.0
26/09:00pm 30.9 26.6 3.0 17 14.4 SSE 15 20 8 11 1013.1 - 0.0
26/08:30pm 31.0 26.5 2.3 16 14.7 SSE 15 19 8 10 1012.9 - 0.0
26/08:00pm 31.2 27.1 2.4 16 14.8 SSE 13 17 7 9 1012.7 - 0.0
26/07:30pm 32.1 28.0 2.2 15 15.4 SSE 13 17 7 9 1012.5 - 0.0
26/07:00pm 32.9 28.7 1.9 14 15.9 SSE 13 17 7 9 1012.1 - 0.0
26/06:30pm 33.9 29.3 1.6 13 16.6 SSE 15 22 8 12 1011.7 - 0.0
26/06:00pm 34.6 28.8 -0.1 11 17.5 SE 20 30 11 16 1011.5 - 0.0
26/05:30pm 35.1 29.0 0.2 11 17.7 SSE 22 32 12 17 1011.2 - 0.0
26/05:00pm 35.3 30.1 0.4 11 17.8 SSE 17 32 9 17 1011.0 - 0.0
26/04:30pm 36.2 30.6 1.1 11 18.2 SE 20 33 11 18 1011.0 - 0.0
26/04:00pm 36.4 30.6 -0.1 10 18.6 SE 20 35 11 19 1010.9 - 0.0
26/03:30pm 35.9 30.2 -0.5 10 18.3 SE 19 33 10 18 1011.1 - 0.0
26/03:00pm 35.5 29.8 -0.8 10 18.2 SSE 19 32 10 17 1011.3 - 0.0
26/02:30pm 36.1 30.3 -0.3 10 18.4 SE 20 30 11 16 1011.6 - 0.0
26/02:00pm 35.5 29.6 -2.2 9 18.4 SE 19 30 10 16 1011.7 - 0.0
26/01:30pm 35.6 30.7 -0.7 10 18.2 SE 15 41 8 22 1012.0 - 0.0
26/01:00pm 35.1 30.1 -1.1 10 18.0 SSE 15 28 8 15 1012.6 - 0.0
26/12:30pm 33.8 28.5 1.6 13 16.6 SE 19 32 10 17 1013.0 - 0.0
26/12:00pm 33.8 28.7 0.5 12 16.8 ESE 17 30 9 16 1013.4 - 0.0
26/11:30am 33.4 29.0 0.1 12 16.7 SE 13 24 7 13 1013.8 - 0.0
26/11:00am 33.1 28.8 3.0 15 15.8 E 15 24 8 13 1014.2 - 0.0
26/10:30am 31.7 28.8 2.8 16 15.0 E 7 17 4 9 1014.9 - 0.0
26/10:00am 31.3 27.0 3.4 17 14.5 E 15 28 8 15 1015.3 - 0.0
26/09:30am 30.4 25.9 4.2 19 13.8 E 17 24 9 13 1015.5 - 0.0
26/09:00am 30.3 25.4 4.9 20 13.5 ENE 20 30 11 16 1015.6 - 0.0
26/08:30am 28.9 23.7 5.7 23 12.4 ENE 22 32 12 17 1015.6 - 0.0
26/08:00am 28.4 22.4 5.3 23 12.2 ENE 26 35 14 19 1015.7 - 0.0
26/07:30am 27.6 22.5 4.0 22 12.2 ENE 20 28 11 15 1015.6 - 0.0
26/07:00am 25.5 21.3 4.0 25 10.9 E 15 19 8 10 1015.4 - 0.0
26/06:30am 24.4 20.6 3.7 26 10.4 E 13 17 7 9 1015.3 - 0.0
26/06:00am 22.7 19.8 2.8 27 9.7 ENE 7 11 4 6 1014.9 - 0.0
26/05:30am 21.5 18.5 2.2 28 9.2 E 7 11 4 6 1014.5 - 0.0
26/05:00am 22.0 18.6 1.6 26 9.7 ENE 9 9 5 5 1014.3 - 0.0
26/04:30am 21.4 18.5 1.7 27 9.3 E 6 7 3 4 1014.2 - 0.0
26/04:00am 21.8 18.3 1.5 26 9.6 ESE 9 11 5 6 1013.9 - 0.0
26/03:30am 21.8 18.6 0.9 25 9.8 ESE 7 9 4 5 1013.9 - 0.0
26/03:00am 22.7 19.6 1.1 24 10.2 ESE 7 9 4 5 1013.7 - 0.0
26/02:30am 22.6 20.4 1.0 24 10.2 ESE 2 4 1 2 1013.6 - 0.0
26/02:00am 23.7 20.7 0.7 22 10.9 ENE 6 11 3 6 1013.5 - 0.0
26/01:30am 23.7 21.0 0.1 21 11.0 SE 4 6 2 3 1013.6 - 0.0
26/01:00am 25.2 21.9 0.0 19 11.9 SSE 7 7 4 4 1013.7 - 0.0
26/12:30am 25.4 22.1 0.1 19 12.0 SSW 7 9 4 5 1013.9 - 0.0
26/12:00am 26.9 23.2 -0.2 17 12.9 NNE 9 11 5 6 1014.2 - 0.0
 
Date/Time
WST
Temp
°C
App
Temp
°C
Dew
Point
°C
Rel
Hum
%
Delta-T
°C
Wind Press
QNH
hPa
Press
MSL
hPa
Rain since
9am
mm
Dir  Spd
km/h
Gust
km/h
Spd
kts
Gust
kts
25/11:30pm 28.5 24.0 -0.6 15 13.9 NE 13 19 7 10 1014.1 - 0.0
25/11:00pm 28.6 24.5 -0.5 15 14.0 SE 11 17 6 9 1013.9 - 0.0
25/10:30pm 29.3 24.7 -0.9 14 14.5 ESE 13 19 7 10 1014.2 - 0.0
25/10:00pm 29.4 25.2 -0.9 14 14.5 SE 11 15 6 8 1014.2 - 0.0
25/09:30pm 30.4 24.5 -2.2 12 15.4 SSE 19 24 10 13 1014.1 - 0.0
25/09:00pm 30.9 24.7 -3.0 11 15.8 SE 20 28 11 15 1014.0 - 0.0
25/08:30pm 31.7 25.1 -3.6 10 16.4 SSE 22 28 12 15 1013.8 - 0.0
25/08:00pm 32.2 25.8 -2.0 11 16.4 SSE 22 30 12 16 1013.6 - 0.0
25/07:30pm 32.6 26.9 -0.5 12 16.3 SSE 19 28 10 15 1013.3 - 0.0
25/07:00pm 33.4 28.0 1.3 13 16.4 S 19 26 10 14 1012.9 - 0.0
25/06:30pm 34.2 28.9 1.9 13 16.7 S 19 26 10 14 1012.5 - 0.0
25/06:00pm 35.3 30.5 2.7 13 17.2 S 17 26 9 14 1012.0 - 0.0
25/05:30pm 35.6 30.7 1.8 12 17.6 SSE 17 26 9 14 1011.7 - 0.0
25/05:00pm 35.5 32.5 1.8 12 17.6 SSW 7 20 4 11 1011.3 - 0.0
25/04:30pm 36.4 32.7 2.5 12 17.9 SSW 11 22 6 12 1011.3 - 0.0
25/04:00pm 36.6 31.4 2.6 12 18.1 S 19 35 10 19 1011.3 - 0.0
25/03:30pm 36.2 31.3 2.3 12 17.9 SSE 17 26 9 14 1011.4 - 0.0
25/03:00pm 35.9 32.3 3.2 13 17.5 SSE 11 17 6 9 1011.6 - 0.0
25/02:30pm 35.9 31.2 3.2 13 17.4 SSW 17 32 9 17 1011.8 - 0.0
25/02:00pm 35.3 31.5 3.8 14 16.9 SSW 13 30 7 16 1012.0 - 0.0
25/01:30pm 35.3 31.7 4.8 15 16.6 S 13 26 7 14 1012.5 - 0.0
25/01:00pm 35.1 30.7 4.6 15 16.6 SE 17 30 9 16 1013.0 - 0.0
25/12:30pm 34.9 31.4 5.4 16 16.2 SE 13 28 7 15 1013.3 - 0.0
25/12:00pm 33.8 31.1 5.4 17 15.5 ENE 9 22 5 12 1013.6 - 0.0
25/11:30am 33.8 30.1 4.5 16 15.8 ESE 13 22 7 12 1014.0 - 0.0

Other formats

Comma delimited format used in spreadsheet applications
http://www.bom.gov.au/fwo/IDW60801/IDW60801.99593.axf

JavaScript Object Notation format (JSON) in row-major order
http://www.bom.gov.au/fwo/IDW60801/IDW60801.99593.json

Data quality

Most of these data are generated automatically and are frequently updated. Quality checks on data are not normally performed. It is possible for incorrect values to appear. Refer to information at About Latest Weather Observations and please check the disclaimer before using these data.